createdAt,value
2018-05-09T00:00:48.728Z,46.04
2018-05-09T00:03:16.135Z,46.18
2018-05-09T00:05:43.560Z,46.29
2018-05-09T00:08:10.972Z,46.33
2018-05-09T00:10:38.385Z,46.53
2018-05-09T00:13:05.788Z,46.51
2018-05-09T00:15:33.207Z,46.70
2018-05-09T00:18:00.604Z,46.91
2018-05-09T00:20:28.035Z,47.19
2018-05-09T00:22:55.432Z,47.25
2018-05-09T00:25:22.852Z,47.06
2018-05-09T00:27:50.273Z,47.19
2018-05-09T00:30:17.684Z,47.50
2018-05-09T00:32:45.089Z,47.71
2018-05-09T00:35:12.506Z,47.87
2018-05-09T00:37:39.910Z,47.78
2018-05-09T00:40:07.325Z,47.95
2018-05-09T00:42:34.742Z,48.08
2018-05-09T00:45:02.164Z,48.20
2018-05-09T00:47:29.576Z,48.24
2018-05-09T00:49:56.992Z,48.50
2018-05-09T00:52:24.393Z,48.49
2018-05-09T00:54:51.809Z,48.65
2018-05-09T00:57:19.222Z,48.66
2018-05-09T00:59:46.679Z,48.80
2018-05-09T01:02:14.087Z,48.89
2018-05-09T01:04:41.492Z,48.92
2018-05-09T01:07:08.908Z,48.87
2018-05-09T01:09:36.321Z,48.88
2018-05-09T01:12:03.736Z,48.91
2018-05-09T01:14:31.144Z,48.99
2018-05-09T01:16:58.565Z,49.01
2018-05-09T01:19:25.969Z,49.13
2018-05-09T01:21:53.388Z,49.12
2018-05-09T01:24:20.796Z,49.17
2018-05-09T01:26:48.215Z,49.20
2018-05-09T01:29:15.625Z,49.28
2018-05-09T01:31:43.039Z,49.31
2018-05-09T01:34:10.445Z,49.46
2018-05-09T01:36:37.860Z,49.49
2018-05-09T01:39:06.165Z,49.54
2018-05-09T01:41:33.576Z,49.61
2018-05-09T01:44:00.983Z,49.58
2018-05-09T01:46:28.400Z,49.57
2018-05-09T01:48:55.802Z,49.68
2018-05-09T01:51:23.212Z,49.76
2018-05-09T01:53:50.622Z,49.89
2018-05-09T01:56:18.032Z,49.92
2018-05-09T01:58:45.439Z,49.96
2018-05-09T02:01:12.860Z,49.98
2018-05-09T02:03:40.264Z,50.10
2018-05-09T02:06:07.739Z,50.34
2018-05-09T02:08:35.082Z,50.55
2018-05-09T02:11:02.505Z,50.73
2018-05-09T02:13:29.908Z,50.84
2018-05-09T02:15:57.384Z,51.15
2018-05-09T02:18:24.788Z,51.17
2018-05-09T02:20:52.203Z,51.34
2018-05-09T02:23:19.604Z,51.49
2018-05-09T02:25:47.020Z,51.49
2018-05-09T02:28:14.421Z,51.58
2018-05-09T02:30:41.842Z,51.73
2018-05-09T02:33:09.256Z,51.82
2018-05-09T02:35:36.656Z,52.00
2018-05-09T02:38:04.065Z,52.18
2018-05-09T02:40:31.472Z,52.28
2018-05-09T02:42:58.891Z,52.44
2018-05-09T02:45:26.296Z,52.85
2018-05-09T02:47:53.712Z,52.91
2018-05-09T02:50:21.113Z,53.04
2018-05-09T02:52:48.529Z,53.12
2018-05-09T02:55:15.936Z,53.26
2018-05-09T02:57:43.348Z,53.60
2018-05-09T03:00:10.761Z,53.64
2018-05-09T03:02:38.173Z,53.95
2018-05-09T03:05:05.585Z,54.17
2018-05-09T03:07:32.997Z,54.38
2018-05-09T03:10:00.409Z,54.56
2018-05-09T03:12:27.811Z,54.61
2018-05-09T03:14:55.214Z,54.80
2018-05-09T03:17:22.628Z,54.83
2018-05-09T03:19:50.041Z,55.06
2018-05-09T03:22:17.453Z,55.18
2018-05-09T03:24:44.861Z,55.32
2018-05-09T03:27:12.275Z,55.40
2018-05-09T03:29:39.770Z,55.64
2018-05-09T03:32:07.093Z,55.77
2018-05-09T03:34:34.504Z,55.99
2018-05-09T03:37:01.905Z,56.28
2018-05-09T03:39:29.312Z,56.56
2018-05-09T03:41:56.715Z,56.61
2018-05-09T03:44:24.136Z,56.58
2018-05-09T03:46:51.540Z,56.87
2018-05-09T03:49:18.952Z,56.93
2018-05-09T03:51:46.369Z,57.09
2018-05-09T03:54:13.788Z,57.15
2018-05-09T03:56:41.187Z,57.68
2018-05-09T03:59:08.632Z,57.65
2018-05-09T04:04:47.468Z,57.78
2018-05-09T04:07:26.682Z,57.69
2018-05-09T04:09:54.815Z,57.80
2018-05-09T04:12:22.226Z,57.90
2018-05-09T04:14:49.711Z,58.08
2018-05-09T04:17:17.086Z,58.14
2018-05-09T04:19:44.508Z,58.20
2018-05-09T04:22:11.919Z,58.29
2018-05-09T04:24:39.325Z,58.24
2018-05-09T04:27:06.747Z,58.25
2018-05-09T04:29:34.214Z,58.29
2018-05-09T04:32:01.569Z,58.27
2018-05-09T04:34:28.973Z,58.31
2018-05-09T04:36:56.384Z,58.42
2018-05-09T04:39:23.797Z,58.41
2018-05-09T04:41:51.246Z,58.50
2018-05-09T04:44:18.625Z,58.60
2018-05-09T04:46:46.045Z,58.75
2018-05-09T04:49:13.544Z,58.59
2018-05-09T04:51:40.867Z,58.44
2018-05-09T04:54:08.269Z,58.25
2018-05-09T04:56:35.683Z,58.03
2018-05-09T04:59:03.089Z,58.13
2018-05-09T05:01:30.505Z,57.71
2018-05-09T05:03:57.916Z,57.69
2018-05-09T05:06:25.325Z,57.26
2018-05-09T05:08:52.728Z,57.29
2018-05-09T05:11:20.149Z,57.61
2018-05-09T05:13:47.556Z,57.22
2018-05-09T05:16:14.961Z,56.37
2018-05-09T05:18:42.381Z,55.38
2018-05-09T05:21:09.789Z,54.96
2018-05-09T05:23:37.205Z,54.49
2018-05-09T05:26:04.611Z,54.11
2018-05-09T05:28:32.029Z,53.54
2018-05-09T05:30:59.440Z,53.07
2018-05-09T05:33:26.857Z,52.41
2018-05-09T05:35:54.269Z,51.71
2018-05-09T05:38:21.672Z,51.49
2018-05-09T05:40:49.084Z,51.17
2018-05-09T05:43:16.497Z,50.56
2018-05-09T05:45:43.900Z,50.56
2018-05-09T05:48:11.321Z,50.13
2018-05-09T05:50:38.728Z,50.14
2018-05-09T05:53:06.144Z,50.17
2018-05-09T05:55:33.549Z,49.32
2018-05-09T05:58:00.964Z,48.64
2018-05-09T06:00:28.377Z,48.32
2018-05-09T06:02:55.793Z,48.39
2018-05-09T06:05:23.199Z,48.13
2018-05-09T06:07:50.637Z,47.87
2018-05-09T06:10:18.069Z,47.10
2018-05-09T06:12:45.501Z,47.10
2018-05-09T06:15:12.904Z,47.19
2018-05-09T06:17:40.316Z,46.64
2018-05-09T06:20:07.732Z,46.45
2018-05-09T06:22:35.150Z,46.00
2018-05-09T06:25:02.574Z,46.20
2018-05-09T06:27:29.985Z,45.36
2018-05-09T06:29:57.402Z,44.40
2018-05-09T06:32:24.813Z,45.13
2018-05-09T06:34:52.234Z,44.15
2018-05-09T06:37:19.636Z,44.62
2018-05-09T06:39:47.064Z,44.09
2018-05-09T06:42:14.477Z,44.30
2018-05-09T06:44:41.900Z,43.32
2018-05-09T06:47:09.317Z,42.98
2018-05-09T06:49:36.733Z,42.62
2018-05-09T06:52:04.150Z,42.48
2018-05-09T06:54:31.573Z,42.43
2018-05-09T06:56:58.984Z,42.25
2018-05-09T06:59:26.404Z,41.41
2018-05-09T07:01:53.825Z,40.67
2018-05-09T07:04:21.243Z,40.84
2018-05-09T07:06:48.754Z,39.81
2018-05-09T07:09:16.092Z,38.09
2018-05-09T07:11:43.510Z,38.96
2018-05-09T07:14:10.935Z,38.75
2018-05-09T07:16:38.339Z,38.72
2018-05-09T07:19:05.765Z,38.39
2018-05-09T07:21:33.185Z,38.33
2018-05-09T07:24:00.611Z,37.25
2018-05-09T07:26:28.030Z,37.93
2018-05-09T07:28:55.460Z,36.83
2018-05-09T07:31:22.873Z,36.69
2018-05-09T07:33:50.302Z,35.82
2018-05-09T07:36:17.713Z,35.69
2018-05-09T07:38:45.133Z,36.11
2018-05-09T07:41:12.555Z,35.80
2018-05-09T07:43:39.981Z,35.36
2018-05-09T07:46:07.400Z,35.13
2018-05-09T07:48:34.819Z,35.22
2018-05-09T07:51:02.239Z,34.23
2018-05-09T07:53:29.652Z,33.61
2018-05-09T07:55:57.076Z,33.98
2018-05-09T07:58:24.493Z,33.53
2018-05-09T08:00:51.921Z,32.81
2018-05-09T08:03:19.341Z,32.52
2018-05-09T08:05:46.772Z,32.62
2018-05-09T08:08:14.184Z,31.96
2018-05-09T08:10:41.614Z,32.57
2018-05-09T08:13:09.024Z,32.59
2018-05-09T08:15:36.452Z,31.92
2018-05-09T08:18:03.867Z,31.03
2018-05-09T08:20:31.292Z,31.22
2018-05-09T08:22:58.700Z,31.46
2018-05-09T08:25:26.120Z,30.78
2018-05-09T08:27:53.540Z,30.51
2018-05-09T08:30:21.062Z,29.49
2018-05-09T08:32:48.393Z,29.97
2018-05-09T08:35:15.818Z,29.81
2018-05-09T08:37:43.232Z,29.23
2018-05-09T08:40:10.672Z,29.55
2018-05-09T08:42:38.085Z,29.44
2018-05-09T08:45:05.507Z,28.75
2018-05-09T08:47:32.919Z,28.90
2018-05-09T08:50:00.345Z,28.64
2018-05-09T08:52:27.755Z,28.91
2018-05-09T08:54:55.190Z,28.78
2018-05-09T08:57:22.601Z,28.43
2018-05-09T08:59:50.016Z,28.08
2018-05-09T09:02:17.428Z,27.69
2018-05-09T09:04:44.853Z,27.72
2018-05-09T09:07:12.268Z,27.60
2018-05-09T09:09:39.692Z,27.46
2018-05-09T09:12:07.109Z,27.47
2018-05-09T09:14:34.531Z,27.20
2018-05-09T09:17:01.936Z,27.21
2018-05-09T09:19:29.362Z,26.75
2018-05-09T09:21:56.769Z,27.09
2018-05-09T09:24:24.192Z,26.38
2018-05-09T09:26:51.601Z,26.69
2018-05-09T09:29:19.123Z,26.72
2018-05-09T09:31:46.433Z,26.47
2018-05-09T09:34:13.844Z,26.57
2018-05-09T09:36:41.264Z,25.95
2018-05-09T09:39:08.682Z,26.01
2018-05-09T09:41:36.104Z,25.80
2018-05-09T09:44:03.516Z,25.42
2018-05-09T09:46:30.940Z,25.23
2018-05-09T09:48:58.368Z,25.37
2018-05-09T09:51:25.796Z,25.34
2018-05-09T09:53:53.218Z,25.13
2018-05-09T09:56:20.641Z,25.04
2018-05-09T09:58:48.077Z,24.38
2018-05-09T10:01:15.495Z,24.18
2018-05-09T10:03:42.913Z,24.23
2018-05-09T10:06:10.335Z,23.55
2018-05-09T10:08:37.757Z,23.53
2018-05-09T10:11:05.179Z,23.10
2018-05-09T10:13:32.601Z,23.23
2018-05-09T10:16:00.070Z,23.02
2018-05-09T10:18:27.440Z,22.69
2018-05-09T10:20:54.871Z,23.03
2018-05-09T10:23:22.360Z,23.02
2018-05-09T10:25:49.716Z,23.24
2018-05-09T10:28:17.125Z,23.28
2018-05-09T10:30:44.552Z,23.21
2018-05-09T10:33:11.969Z,23.00
2018-05-09T10:35:39.396Z,23.02
2018-05-09T10:38:06.827Z,22.77
2018-05-09T10:40:34.257Z,22.53
2018-05-09T10:43:01.685Z,22.63
2018-05-09T10:45:29.132Z,22.67
2018-05-09T10:47:56.560Z,22.54
2018-05-09T10:50:23.994Z,22.62
2018-05-09T10:52:51.411Z,22.47
2018-05-09T10:55:18.849Z,22.54
2018-05-09T10:57:46.278Z,22.57
2018-05-09T11:00:13.713Z,22.56
2018-05-09T11:02:41.168Z,22.04
2018-05-09T11:05:08.677Z,22.29
2018-05-09T11:07:36.024Z,22.35
2018-05-09T11:10:03.445Z,22.73
2018-05-09T11:12:30.883Z,22.23
2018-05-09T11:14:58.306Z,22.19
2018-05-09T11:17:25.745Z,22.87
2018-05-09T11:19:53.168Z,22.25
2018-05-09T11:22:20.617Z,22.41
2018-05-09T11:24:48.044Z,22.80
2018-05-09T11:27:15.504Z,22.44
2018-05-09T11:29:42.928Z,22.44
2018-05-09T11:32:10.373Z,22.10
2018-05-09T11:34:37.792Z,21.82
2018-05-09T11:37:05.232Z,22.03
2018-05-09T11:39:32.660Z,22.22
2018-05-09T11:42:00.093Z,22.13
2018-05-09T11:44:27.525Z,22.06
2018-05-09T11:46:54.951Z,22.18
2018-05-09T11:49:22.372Z,22.15
2018-05-09T11:51:49.805Z,21.70
2018-05-09T11:54:17.224Z,21.69
2018-05-09T11:56:44.681Z,21.79
2018-05-09T11:59:12.104Z,21.75
2018-05-09T12:01:39.539Z,21.53
2018-05-09T12:04:06.957Z,21.46
2018-05-09T12:06:34.388Z,21.73
2018-05-09T12:09:01.797Z,21.62
2018-05-09T12:11:29.229Z,21.32
2018-05-09T12:13:56.644Z,21.46
2018-05-09T12:16:24.092Z,21.51
2018-05-09T12:18:51.525Z,21.24
2018-05-09T12:21:18.956Z,21.46
2018-05-09T12:23:46.372Z,21.44
2018-05-09T12:26:13.798Z,21.29
2018-05-09T12:28:41.217Z,21.29
2018-05-09T12:31:08.649Z,21.46
2018-05-09T12:33:36.073Z,21.42
2018-05-09T12:36:03.529Z,21.56
2018-05-09T12:38:30.949Z,21.41
2018-05-09T12:40:58.376Z,21.74
2018-05-09T12:43:25.800Z,21.57
2018-05-09T12:45:53.224Z,21.56
2018-05-09T12:48:20.649Z,21.95
2018-05-09T12:50:48.073Z,21.94
2018-05-09T12:53:15.500Z,21.89
2018-05-09T12:55:42.916Z,21.96
2018-05-09T12:58:10.333Z,21.78
2018-05-09T13:00:37.753Z,21.83
2018-05-09T13:03:05.189Z,22.26
2018-05-09T13:05:32.612Z,22.30
2018-05-09T13:08:00.044Z,22.49
2018-05-09T13:10:27.472Z,22.05
2018-05-09T13:12:54.900Z,22.16
2018-05-09T13:15:22.311Z,22.12
2018-05-09T13:17:49.749Z,22.20
2018-05-09T13:20:17.168Z,22.17
2018-05-09T13:22:44.593Z,22.29
2018-05-09T13:25:12.011Z,22.29
2018-05-09T13:27:39.449Z,22.32
2018-05-09T13:30:06.873Z,21.86
2018-05-09T13:32:34.306Z,21.98
2018-05-09T13:35:01.741Z,22.08
2018-05-09T13:37:29.178Z,21.63
2018-05-09T13:39:56.649Z,21.69
2018-05-09T13:42:24.024Z,21.55
2018-05-09T13:44:51.436Z,21.60
2018-05-09T13:47:18.873Z,21.61
2018-05-09T13:49:46.289Z,21.48
2018-05-09T13:52:13.717Z,21.33
2018-05-09T13:54:41.137Z,21.53
2018-05-09T13:57:08.564Z,21.54
2018-05-09T13:59:35.984Z,21.65
2018-05-09T14:02:03.413Z,21.59
2018-05-09T14:04:31.002Z,21.54
2018-05-09T14:06:58.459Z,21.64
2018-05-09T14:09:25.884Z,21.54
2018-05-09T14:11:53.313Z,21.46
2018-05-09T14:14:20.740Z,21.44
2018-05-09T14:16:48.184Z,21.45
2018-05-09T14:19:15.608Z,21.52
2018-05-09T14:21:43.024Z,21.33
2018-05-09T14:24:10.457Z,21.44
2018-05-09T14:26:37.879Z,21.22
2018-05-09T14:29:05.308Z,21.27
2018-05-09T14:31:32.733Z,21.35
2018-05-09T14:34:00.156Z,21.41
2018-05-09T14:36:27.583Z,21.44
2018-05-09T14:38:55.037Z,21.46
2018-05-09T14:41:22.462Z,21.64
2018-05-09T14:43:49.900Z,21.91
2018-05-09T14:46:17.324Z,22.12
2018-05-09T14:48:44.757Z,22.28
2018-05-09T14:51:12.196Z,22.05
2018-05-09T14:53:39.638Z,22.11
2018-05-09T14:56:07.074Z,22.16
2018-05-09T14:58:38.341Z,22.38
2018-05-09T15:01:05.751Z,22.41
2018-05-09T15:03:33.199Z,22.58
2018-05-09T15:06:00.626Z,22.62
2018-05-09T15:08:28.056Z,22.77
2018-05-09T15:10:55.473Z,22.95
2018-05-09T15:13:22.909Z,22.92
2018-05-09T15:15:50.321Z,22.67
2018-05-09T15:18:17.778Z,22.58
2018-05-09T15:20:45.193Z,22.73
2018-05-09T15:23:12.638Z,22.81
2018-05-09T15:25:40.065Z,23.22
2018-05-09T15:28:07.497Z,23.49
2018-05-09T15:30:34.922Z,23.48
2018-05-09T15:33:02.356Z,23.72
2018-05-09T15:35:29.772Z,23.89
2018-05-09T15:37:57.201Z,24.04
2018-05-09T15:40:24.622Z,24.34
2018-05-09T15:45:25.917Z,24.74
2018-05-09T15:47:53.344Z,24.58
2018-05-09T15:50:20.834Z,24.63
2018-05-09T15:52:48.196Z,24.68
2018-05-09T15:55:15.618Z,24.83
2018-05-09T15:57:43.079Z,25.10
2018-05-09T16:00:10.446Z,25.13
2018-05-09T16:02:37.860Z,25.19
2018-05-09T16:05:05.280Z,25.42
2018-05-09T16:07:32.716Z,25.55
2018-05-09T16:10:00.146Z,25.87
2018-05-09T16:12:27.555Z,25.54
2018-05-09T16:14:54.977Z,25.45
2018-05-09T16:17:22.388Z,25.64
2018-05-09T16:19:49.820Z,25.64
2018-05-09T16:22:17.288Z,25.50
2018-05-09T16:24:44.693Z,25.62
2018-05-09T16:27:12.112Z,25.87
2018-05-09T16:29:39.541Z,25.84
2018-05-09T16:32:06.956Z,25.81
2018-05-09T16:34:34.377Z,26.05
2018-05-09T16:37:01.797Z,26.09
2018-05-09T16:39:29.216Z,26.17
2018-05-09T16:41:56.636Z,26.17
2018-05-09T16:44:24.056Z,26.21
2018-05-09T16:46:51.590Z,26.36
2018-05-09T16:49:19.031Z,26.20
2018-05-09T16:51:46.465Z,26.19
2018-05-09T16:54:13.893Z,26.15
2018-05-09T16:56:41.312Z,26.30
2018-05-09T16:59:08.735Z,26.18
2018-05-09T17:01:36.212Z,26.27
2018-05-09T17:04:03.580Z,26.22
2018-05-09T17:06:31.016Z,26.48
2018-05-09T17:08:58.444Z,26.47
2018-05-09T17:11:25.865Z,26.28
2018-05-09T17:13:53.279Z,26.36
2018-05-09T17:16:20.696Z,26.29
2018-05-09T17:18:48.124Z,26.21
2018-05-09T17:21:33.168Z,26.34
2018-05-09T17:24:00.585Z,26.33
2018-05-09T17:26:28.001Z,26.62
2018-05-09T17:28:55.432Z,26.70
2018-05-09T17:31:22.849Z,26.73
2018-05-09T17:33:50.267Z,26.74
2018-05-09T17:36:17.682Z,27.44
2018-05-09T17:38:45.112Z,27.57
2018-05-09T17:41:12.528Z,28.36
2018-05-09T17:43:39.955Z,28.09
2018-05-09T17:46:07.383Z,28.41
2018-05-09T17:48:34.793Z,28.49
2018-05-09T17:51:02.225Z,28.66
2018-05-09T17:53:29.646Z,28.94
2018-05-09T17:55:57.069Z,29.13
2018-05-09T17:58:24.492Z,29.26
2018-05-09T18:00:51.918Z,29.25
2018-05-09T18:03:19.332Z,29.43
2018-05-09T18:05:46.752Z,29.53
2018-05-09T18:08:14.176Z,29.69
2018-05-09T18:10:41.604Z,29.95
2018-05-09T18:13:09.008Z,29.84
2018-05-09T18:15:36.436Z,29.92
2018-05-09T18:18:03.920Z,29.82
2018-05-09T18:20:31.345Z,30.01
2018-05-09T18:22:58.761Z,30.04
2018-05-09T18:25:26.196Z,30.04
2018-05-09T18:27:53.616Z,30.13
2018-05-09T18:30:21.033Z,30.21
2018-05-09T18:32:48.448Z,30.10
2018-05-09T18:35:15.877Z,30.20
2018-05-09T18:37:43.289Z,30.28
2018-05-09T18:40:10.738Z,30.14
2018-05-09T18:42:38.147Z,30.11
2018-05-09T18:45:05.573Z,30.30
2018-05-09T18:47:32.988Z,30.35
2018-05-09T18:50:00.416Z,30.44
2018-05-09T18:52:27.828Z,30.53
2018-05-09T18:54:55.256Z,30.67
2018-05-09T18:57:22.681Z,30.72
2018-05-09T18:59:50.192Z,30.84
2018-05-09T19:02:17.534Z,30.86
2018-05-09T19:04:44.964Z,30.95
2018-05-09T19:07:12.364Z,31.13
2018-05-09T19:09:39.789Z,31.05
2018-05-09T19:12:07.204Z,31.14
2018-05-09T19:14:34.631Z,31.45
2018-05-09T19:17:02.049Z,31.49
2018-05-09T19:19:29.477Z,31.56
2018-05-09T19:21:56.892Z,31.56
2018-05-09T19:24:24.311Z,31.62
2018-05-09T19:26:51.733Z,31.74
2018-05-09T19:29:19.139Z,31.84
2018-05-09T19:31:46.569Z,31.91
2018-05-09T19:34:13.992Z,32.18
2018-05-09T19:36:41.408Z,32.35
2018-05-09T19:39:08.829Z,32.47
2018-05-09T19:41:36.329Z,32.51
2018-05-09T19:44:03.667Z,32.67
2018-05-09T19:46:31.089Z,32.57
2018-05-09T19:48:58.501Z,32.65
2018-05-09T19:51:25.921Z,32.78
2018-05-09T19:53:53.339Z,33.05
2018-05-09T19:56:20.765Z,33.03
2018-05-09T19:58:48.184Z,33.35
2018-05-09T20:01:15.609Z,33.60
2018-05-09T20:03:43.026Z,33.87
2018-05-09T20:06:10.445Z,34.03
2018-05-09T20:08:37.961Z,34.22
2018-05-09T20:11:05.312Z,34.42
2018-05-09T20:13:32.729Z,34.64
2018-05-09T20:16:00.161Z,34.76
2018-05-09T20:18:27.605Z,35.05
2018-05-09T20:20:55.049Z,35.24
2018-05-09T20:23:22.464Z,35.57
2018-05-09T20:25:49.891Z,36.05
2018-05-09T20:28:17.312Z,36.74
2018-05-09T20:30:50.320Z,36.34
2018-05-09T20:33:17.720Z,37.17
2018-05-09T20:35:45.144Z,37.21
2018-05-09T20:38:12.561Z,37.46
2018-05-09T20:40:39.992Z,37.61
2018-05-09T20:43:07.404Z,37.71
2018-05-09T20:45:34.835Z,37.74
2018-05-09T20:48:02.253Z,37.90
2018-05-09T20:50:29.671Z,38.27
2018-05-09T20:52:57.088Z,38.88
2018-05-09T20:55:29.345Z,38.78
2018-05-09T20:57:56.760Z,39.05
2018-05-09T21:00:24.172Z,39.48
2018-05-09T21:02:51.595Z,39.87
2018-05-09T21:05:19.017Z,39.88
2018-05-09T21:07:58.191Z,39.76
2018-05-09T21:10:25.606Z,40.02
2018-05-09T21:12:53.030Z,40.09
2018-05-09T21:15:20.443Z,40.24
2018-05-09T21:17:47.864Z,40.36
2018-05-09T21:20:15.347Z,40.57
2018-05-09T21:22:42.716Z,40.52
2018-05-09T21:25:10.144Z,40.77
2018-05-09T21:27:37.646Z,40.89
2018-05-09T21:30:04.997Z,40.89
2018-05-09T21:32:32.420Z,41.08
2018-05-09T21:34:59.841Z,41.01
2018-05-09T21:37:27.260Z,41.27
2018-05-09T21:39:54.685Z,41.21
2018-05-09T21:42:22.109Z,41.64
2018-05-09T21:44:49.528Z,41.47
2018-05-09T21:47:16.944Z,41.75
2018-05-09T21:49:44.408Z,41.75
2018-05-09T21:52:11.778Z,41.62
2018-05-09T21:54:39.193Z,41.63
2018-05-09T21:57:06.619Z,41.81
2018-05-09T21:59:34.049Z,41.80
2018-05-09T22:02:01.474Z,41.80
2018-05-09T22:04:28.892Z,41.76
2018-05-09T22:06:56.320Z,41.94
2018-05-09T22:09:23.760Z,41.94
2018-05-09T22:11:51.181Z,41.92
2018-05-09T22:14:18.596Z,41.98
2018-05-09T22:16:46.025Z,42.09
2018-05-09T22:19:13.440Z,42.04
2018-05-09T22:21:40.870Z,42.10
2018-05-09T22:24:08.292Z,42.30
2018-05-09T22:26:35.705Z,42.28
2018-05-09T22:29:03.129Z,42.26
2018-05-09T22:31:30.542Z,42.33
2018-05-09T22:33:57.960Z,42.61
2018-05-09T22:36:25.377Z,42.54
2018-05-09T22:38:52.805Z,42.52
2018-05-09T22:41:20.208Z,42.58
2018-05-09T22:43:47.644Z,42.68
2018-05-09T22:46:15.049Z,42.93
2018-05-09T22:48:42.478Z,42.82
2018-05-09T22:51:09.889Z,42.98
2018-05-09T22:53:37.312Z,42.94
2018-05-09T22:56:04.726Z,43.01
2018-05-09T22:58:32.184Z,43.01
2018-05-09T23:00:59.608Z,43.08
2018-05-09T23:03:27.034Z,43.13
2018-05-09T23:05:54.446Z,43.13
2018-05-09T23:08:21.877Z,43.19
2018-05-09T23:10:49.292Z,43.29
2018-05-09T23:13:16.716Z,43.32
2018-05-09T23:15:44.133Z,43.42
2018-05-09T23:18:11.558Z,43.45
2018-05-09T23:20:38.963Z,43.61
2018-05-09T23:23:06.377Z,43.77
2018-05-09T23:25:33.797Z,44.14
2018-05-09T23:28:01.216Z,43.93
2018-05-09T23:30:28.641Z,43.96
2018-05-09T23:32:56.048Z,44.03
2018-05-09T23:35:23.476Z,44.13
2018-05-09T23:37:50.894Z,44.22
2018-05-09T23:40:18.311Z,44.26
2018-05-09T23:42:45.730Z,44.28
2018-05-09T23:45:13.156Z,44.37
2018-05-09T23:47:40.584Z,44.43
2018-05-09T23:50:08.009Z,44.47
2018-05-09T23:52:35.425Z,44.47
2018-05-09T23:55:02.853Z,44.64
2018-05-09T23:57:30.265Z,44.59
2018-05-09T23:59:57.688Z,44.66
